Time;durP1;ratioP1;P1;durP2;ratioP2;P2;SDS_P1;SDS_P2;PMS_P1;PMS_P2;Temp;Humidity;BMP_temperature;BMP_pressure;BME280_temperature;BME280_humidity;BME280_pressure;Samples;Min_cycle;Max_cycle;Signal;HPM_P1;HPM_P2
2021/12/15 00:06:44;;;;;;;110.90;38.22;;;9.80;99.90;;;;;;4995331;28;20051;-92
2021/12/15 00:09:13;;;;;;;116.75;38.83;;;9.80;99.90;;;;;;5003209;28;20049;-90
2021/12/15 00:11:47;;;;;;;95.43;37.17;;;9.90;99.90;;;;;;5009415;28;20057;-90
2021/12/15 00:14:33;;;;;;;104.22;39.03;;;9.80;99.90;;;;;;4993008;28;20089;-89
2021/12/15 00:17:10;;;;;;;120.13;40.13;;;9.80;99.90;;;;;;5017126;28;20488;-89
2021/12/15 00:20:00;;;;;;;118.28;40.67;;;9.90;99.90;;;;;;5016809;28;20068;-89
2021/12/15 00:22:42;;;;;;;89.45;37.13;;;9.80;99.90;;;;;;5016206;28;20049;-88
2021/12/15 00:25:48;;;;;;;120.68;39.90;;;9.90;99.90;;;;;;5000607;28;20115;-87
2021/12/15 00:31:57;;;;;;;97.10;36.47;;;9.90;99.90;;;;;;5035460;28;20458;-88
2021/12/15 00:34:38;;;;;;;111.00;38.40;;;9.90;99.90;;;;;;5028192;28;20053;-89
2021/12/15 00:37:10;;;;;;;105.70;36.58;;;9.90;99.90;;;;;;5034632;28;20048;-89
2021/12/15 00:39:39;;;;;;;96.68;36.03;;;9.90;99.90;;;;;;5029962;28;20081;-88
2021/12/15 00:42:15;;;;;;;111.45;37.13;;;9.90;99.90;;;;;;5017851;28;20556;-89
2021/12/15 00:45:06;;;;;;;105.55;36.28;;;9.90;99.90;;;;;;5031162;28;20046;-90
2021/12/15 00:47:45;;;;;;;103.95;36.33;;;9.90;99.90;;;;;;5013387;28;20191;-89
2021/12/15 00:50:25;;;;;;;100.30;35.13;;;9.90;99.90;;;;;;5018406;28;20132;-89
2021/12/15 00:53:00;;;;;;;123.65;36.63;;;9.90;99.90;;;;;;5016977;28;20330;-88
2021/12/15 00:55:31;;;;;;;120.13;37.45;;;9.90;99.90;;;;;;5011120;28;20053;-89
2021/12/15 00:58:12;;;;;;;102.43;35.63;;;9.90;99.90;;;;;;5018056;28;20037;-88
2021/12/15 01:00:58;;;;;;;118.78;37.95;;;9.90;99.90;;;;;;5013445;28;20049;-88
2021/12/15 01:03:28;;;;;;;125.82;37.90;;;9.90;99.90;;;;;;5017779;28;20072;-89
2021/12/15 01:06:07;;;;;;;132.18;37.47;;;9.90;99.90;;;;;;5034137;28;20042;-89
2021/12/15 01:08:53;;;;;;;114.45;35.72;;;9.90;99.90;;;;;;5030575;28;20053;-89
2021/12/15 01:12:08;;;;;;;133.73;37.13;;;9.90;99.90;;;;;;5017239;28;20107;-92
2021/12/15 01:21:26;;;;;;;133.25;36.45;;;9.90;99.90;;;;;;4989103;28;20115;-89
2021/12/15 01:23:59;;;;;;;114.35;35.70;;;9.90;99.90;;;;;;4975313;28;20137;-90
2021/12/15 01:26:45;;;;;;;132.98;36.13;;;9.90;99.90;;;;;;4959507;28;20058;-88
2021/12/15 01:29:17;;;;;;;116.18;34.60;;;9.90;99.90;;;;;;4960356;28;20504;-89
2021/12/15 01:32:00;;;;;;;119.63;33.72;;;9.90;99.90;;;;;;4976683;28;20065;-89
2021/12/15 01:34:28;;;;;;;132.95;35.15;;;9.90;99.90;;;;;;4959901;28;20086;-90
2021/12/15 01:37:08;;;;;;;126.40;34.00;;;9.90;99.90;;;;;;4977074;28;20062;-89
2021/12/15 01:39:53;;;;;;;133.48;33.95;;;9.90;99.90;;;;;;4976915;28;20056;-89
2021/12/15 01:42:34;;;;;;;128.88;35.08;;;9.90;99.90;;;;;;4935228;29;20055;-89
2021/12/15 01:51:44;;;;;;;108.97;32.70;;;9.90;99.90;;;;;;4942155;28;20136;-89
2021/12/15 01:54:26;;;;;;;108.38;33.67;;;10.00;99.90;;;;;;4968881;28;20469;-90
2021/12/15 01:57:15;;;;;;;116.50;33.45;;;9.90;99.90;;;;;;4976162;28;20065;-89
2021/12/15 01:59:50;;;;;;;86.55;30.88;;;9.90;99.90;;;;;;4976005;28;20488;-87
2021/12/15 02:02:28;;;;;;;100.45;32.78;;;9.90;99.90;;;;;;4976265;28;20145;-88
2021/12/15 02:05:16;;;;;;;101.53;33.28;;;9.90;99.90;;;;;;4975926;28;20487;-88
2021/12/15 02:07:54;;;;;;;97.57;33.42;;;9.90;99.90;;;;;;4976067;28;20052;-88
2021/12/15 02:10:28;;;;;;;131.25;35.10;;;9.90;99.90;;;;;;4975788;28;20050;-89
2021/12/15 02:13:09;;;;;;;112.00;34.35;;;9.90;99.90;;;;;;4984100;28;20054;-89
2021/12/15 02:15:53;;;;;;;107.45;34.30;;;9.90;99.90;;;;;;5016338;28;20045;-90
2021/12/15 02:18:44;;;;;;;97.60;33.03;;;9.90;99.90;;;;;;4992581;28;20058;-89
2021/12/15 02:21:31;;;;;;;103.35;33.35;;;9.90;99.90;;;;;;4961330;28;20053;-89
2021/12/15 02:24:07;;;;;;;106.40;34.05;;;9.90;99.90;;;;;;4995925;28;20539;-89
2021/12/15 02:26:45;;;;;;;99.35;32.85;;;9.90;99.90;;;;;;5011661;28;20081;-89
2021/12/15 02:29:42;;;;;;;108.07;33.53;;;9.70;99.90;;;;;;4970847;28;20062;-89
2021/12/15 02:38:18;;;;;;;114.35;32.53;;;9.90;99.90;;;;;;4953478;29;20062;-89
2021/12/15 02:41:09;;;;;;;114.30;33.08;;;9.90;99.90;;;;;;4937463;29;20059;-88
2021/12/15 02:44:04;;;;;;;129.27;35.65;;;9.80;99.90;;;;;;4937425;29;20059;-87
2021/12/15 02:46:37;;;;;;;104.88;33.25;;;9.90;99.90;;;;;;4916036;29;20062;-88
2021/12/15 02:49:38;;;;;;;;;;;;;;;;;;;;;
2021/12/15 02:52:21;;;;;;;118.18;35.25;;;9.80;99.90;;;;;;4937395;29;20114;-88
2021/12/15 02:54:58;;;;;;;131.27;35.70;;;9.90;99.90;;;;;;4952712;29;20043;-89
2021/12/15 02:57:47;;;;;;;135.00;36.75;;;9.90;99.90;;;;;;4915307;29;20125;-88
2021/12/15 03:00:23;;;;;;;111.97;37.13;;;9.90;99.90;;;;;;4898719;29;20522;-87
2021/12/15 03:03:40;;;;;;;118.93;37.20;;;9.90;99.90;;;;;;4899292;29;20056;-88
2021/12/15 03:06:29;;;;;;;121.47;37.42;;;9.90;99.90;;;;;;4897786;29;20188;-89
2021/12/15 03:15:17;;;;;;;119.60;35.90;;;9.90;99.90;;;;;;4896485;29;20060;-89
2021/12/15 03:15:34;;;;;;;106.95;36.67;;;9.90;99.90;;;;;;4877610;29;20053;-88
2021/12/15 03:18:21;;;;;;;135.48;37.03;;;9.80;99.90;;;;;;4861844;29;20056;-88
2021/12/15 03:21:10;;;;;;;116.45;37.22;;;9.90;99.90;;;;;;4825523;29;20062;-88
2021/12/15 03:23:58;;;;;;;138.25;37.92;;;9.80;99.90;;;;;;4825230;29;20054;-88
2021/12/15 03:26:48;;;;;;;127.85;38.92;;;9.80;99.90;;;;;;4804357;29;20105;-88
2021/12/15 03:36:06;;;;;;;149.02;41.25;;;9.80;99.90;;;;;;4827461;29;20054;-88
2021/12/15 03:38:44;;;;;;;134.02;39.58;;;9.80;99.90;;;;;;4827481;29;20080;-88
2021/12/15 03:41:23;;;;;;;125.57;39.33;;;9.80;99.90;;;;;;4844118;29;20484;-88
2021/12/15 03:43:58;;;;;;;116.97;38.05;;;9.80;99.90;;;;;;4858226;29;20053;-87
2021/12/15 03:46:26;;;;;;;123.38;40.03;;;9.80;99.90;;;;;;4905003;29;20572;-88
2021/12/15 03:49:00;;;;;;;136.50;42.05;;;9.80;99.90;;;;;;4917921;29;20515;-87
2021/12/15 03:51:36;;;;;;;114.35;40.00;;;9.80;99.90;;;;;;4917496;29;20139;-88
2021/12/15 03:54:05;;;;;;;129.30;42.53;;;9.80;99.90;;;;;;4918703;29;20441;-88
2021/12/15 04:00:13;;;;;;;123.13;42.72;;;9.80;99.90;;;;;;4915797;29;20177;-88
2021/12/15 04:02:46;;;;;;;107.05;40.00;;;9.80;99.90;;;;;;4885801;29;20066;-88
2021/12/15 04:05:14;;;;;;;126.00;41.08;;;9.80;99.90;;;;;;4901479;29;20064;-88
2021/12/15 04:07:45;;;;;;;129.57;41.38;;;9.80;99.90;;;;;;4901493;29;20487;-88
2021/12/15 04:10:19;;;;;;;;;;;9.80;99.90;;;;;;4901730;29;20578;-88
2021/12/15 04:12:47;;;;;;;115.68;39.70;;;9.80;99.90;;;;;;4916490;29;19930;-88
2021/12/15 04:21:38;;;;;;;126.68;43.17;;;9.80;99.90;;;;;;4916905;29;20084;-88
2021/12/15 04:24:34;;;;;;;135.45;45.75;;;9.80;99.90;;;;;;4920832;29;20469;-87
2021/12/15 04:27:06;;;;;;;130.63;43.83;;;9.80;99.90;;;;;;4938714;29;20042;-88
2021/12/15 04:29:46;;;;;;;137.05;44.80;;;9.70;99.90;;;;;;4956658;28;20146;-87
2021/12/15 04:32:30;;;;;;;130.35;45.30;;;9.70;99.90;;;;;;5009389;28;20385;-90
2021/12/15 04:35:09;;;;;;;127.45;44.45;;;9.80;99.90;;;;;;4997957;28;20054;-89
2021/12/15 04:37:45;;;;;;;114.78;44.30;;;9.80;99.90;;;;;;5017709;28;20041;-90
2021/12/15 04:44:19;;;;;;;128.05;43.97;;;9.70;99.90;;;;;;5034676;28;20091;-91
2021/12/15 04:47:02;;;;;;;118.57;46.10;;;9.70;99.90;;;;;;4977395;28;20055;-90
2021/12/15 04:49:48;;;;;;;126.10;45.67;;;9.70;99.90;;;;;;4977354;28;20141;-89
2021/12/15 04:52:27;;;;;;;;;;;9.70;99.90;;;;;;4993993;28;20042;-90
2021/12/15 04:55:04;;;;;;;122.47;43.78;;;9.70;99.90;;;;;;4973108;28;20384;-90
2021/12/15 04:57:40;;;;;;;123.25;45.55;;;9.70;99.90;;;;;;4957228;28;20137;-89
2021/12/15 05:00:28;;;;;;;;;;;;;;;;;;;;;
2021/12/15 05:03:06;;;;;;;113.78;45.20;;;9.70;99.90;;;;;;4957508;28;20532;-90
2021/12/15 05:05:38;;;;;;;119.15;46.47;;;9.70;99.90;;;;;;4957501;28;20061;-91
2021/12/15 05:08:18;;;;;;;116.25;43.80;;;9.70;99.90;;;;;;4957388;28;20059;-89
2021/12/15 05:11:08;;;;;;;127.80;48.65;;;9.70;99.90;;;;;;4935530;29;20052;-90
2021/12/15 05:16:44;;;;;;;116.88;45.53;;;9.70;99.90;;;;;;4919356;29;20434;-91
2021/12/15 05:19:26;;;;;;;119.65;48.20;;;9.70;99.90;;;;;;4903254;29;20465;-90
2021/12/15 05:22:04;;;;;;;116.95;46.38;;;9.70;99.90;;;;;;4918825;29;20051;-89
2021/12/15 05:24:45;;;;;;;121.55;47.78;;;9.70;99.90;;;;;;4918960;28;20075;-90
2021/12/15 05:27:20;;;;;;;128.10;48.97;;;9.70;99.90;;;;;;4937807;29;20142;-90
2021/12/15 05:30:21;;;;;;;123.25;47.97;;;9.70;99.90;;;;;;4938675;28;20054;-89
2021/12/15 05:33:01;;;;;;;129.15;49.47;;;9.70;99.90;;;;;;4937770;29;20055;-90
2021/12/15 05:35:37;;;;;;;119.93;47.28;;;9.70;99.90;;;;;;4950935;29;20063;-90
2021/12/15 05:38:14;;;;;;;119.53;48.00;;;9.70;99.90;;;;;;4934725;29;20063;-90
2021/12/15 05:40:47;;;;;;;122.18;49.63;;;9.70;99.90;;;;;;4950144;28;20190;-90
2021/12/15 05:43:28;;;;;;;;;;;;;;;;;;;;;
2021/12/15 05:46:06;;;;;;;115.05;45.10;;;9.70;99.90;;;;;;4955990;28;20047;-87
2021/12/15 05:48:53;;;;;;;118.68;47.13;;;9.70;99.90;;;;;;4956539;28;20050;-87
2021/12/15 05:51:28;;;;;;;117.70;46.33;;;9.70;99.90;;;;;;4959841;28;20058;-87
2021/12/15 05:53:59;;;;;;;558.95;90.80;;;9.70;99.90;;;;;;4953271;29;20070;-87
2021/12/15 05:56:28;;;;;;;108.97;46.35;;;9.70;99.90;;;;;;4937415;29;20078;-87
2021/12/15 05:59:02;;;;;;;117.95;47.17;;;9.70;99.90;;;;;;4937227;28;20517;-90
2021/12/15 06:01:40;;;;;;;108.72;46.05;;;9.70;99.90;;;;;;4937033;29;20063;-90
2021/12/15 06:04:20;;;;;;;121.60;48.10;;;9.80;99.90;;;;;;4929591;29;20055;-90
2021/12/15 06:07:03;;;;;;;115.80;45.92;;;9.70;99.90;;;;;;4961102;28;20127;-90
2021/12/15 06:09:56;;;;;;;119.05;46.90;;;9.70;99.90;;;;;;4975568;28;20050;-90
2021/12/15 06:12:43;;;;;;;111.47;45.70;;;9.70;99.90;;;;;;4975874;28;20385;-90
2021/12/15 06:15:20;;;;;;;137.10;45.53;;;9.90;99.90;;;;;;4975263;28;20050;-89
2021/12/15 06:17:56;;;;;;;123.93;46.75;;;9.70;99.90;;;;;;4973539;28;20050;-90
2021/12/15 06:20:29;;;;;;;127.18;47.95;;;9.70;99.90;;;;;;4975232;28;20050;-90
2021/12/15 06:23:11;;;;;;;124.15;45.83;;;9.70;99.90;;;;;;4975259;28;20134;-87
2021/12/15 06:26:01;;;;;;;134.45;46.53;;;9.70;99.90;;;;;;4988256;28;20085;-88
2021/12/15 06:28:34;;;;;;;118.90;45.90;;;9.70;99.90;;;;;;4996156;28;20111;-88
2021/12/15 06:31:10;;;;;;;120.75;46.97;;;9.70;99.90;;;;;;4991848;28;20082;-87
2021/12/15 06:33:43;;;;;;;118.53;46.58;;;9.70;99.90;;;;;;4975408;28;20519;-86
2021/12/15 06:36:20;;;;;;;117.22;44.90;;;9.70;99.90;;;;;;4974601;28;20578;-90
2021/12/15 06:39:02;;;;;;;;;;;;;;;;;;;;;
2021/12/15 06:41:34;;;;;;;116.03;45.88;;;9.70;99.90;;;;;;4991276;28;20051;-90
2021/12/15 06:44:16;;;;;;;115.97;46.50;;;9.70;99.90;;;;;;4975409;28;20050;-89
2021/12/15 06:58:55;;;;;;;98.68;39.22;;;9.70;99.90;;;;;;4978924;28;20058;-89
2021/12/15 07:01:29;;;;;;;116.55;42.65;;;9.70;99.90;;;;;;4995298;28;20064;-88
2021/12/15 07:04:09;;;;;;;115.93;43.55;;;9.70;99.90;;;;;;4979145;28;20046;-89
2021/12/15 07:06:43;;;;;;;125.03;44.67;;;9.70;99.90;;;;;;4978019;28;20047;-89
2021/12/15 07:10:10;;;;;;;118.20;44.70;;;9.70;99.90;;;;;;4956433;29;20180;-88
2021/12/15 07:12:45;;;;;;;119.50;42.08;;;9.70;99.90;;;;;;4924687;29;20469;-91
2021/12/15 07:15:16;;;;;;;116.13;44.30;;;9.70;99.90;;;;;;4921329;29;20056;-89
2021/12/15 07:18:00;;;;;;;112.22;44.03;;;9.70;99.90;;;;;;4937053;29;20083;-89
2021/12/15 07:20:47;;;;;;;121.65;43.90;;;9.70;99.90;;;;;;4938417;29;20059;-89
2021/12/15 07:23:30;;;;;;;118.30;42.30;;;9.70;99.90;;;;;;4917581;29;20052;-89
2021/12/15 07:25:58;;;;;;;107.30;41.65;;;9.70;99.90;;;;;;4917894;29;20071;-91
2021/12/15 07:28:38;;;;;;;106.57;41.30;;;9.70;99.90;;;;;;4902239;29;20059;-88
2021/12/15 07:31:13;;;;;;;113.97;43.93;;;9.80;99.90;;;;;;4917886;29;20048;-89
2021/12/15 07:33:46;;;;;;;98.20;41.78;;;9.70;99.90;;;;;;4917791;29;20143;-89
2021/12/15 07:36:35;;;;;;;101.60;39.50;;;9.70;99.90;;;;;;4917689;29;20044;-88
2021/12/15 07:39:11;;;;;;;100.45;41.15;;;9.70;99.90;;;;;;4910741;29;20061;-88
2021/12/15 07:42:07;;;;;;;95.82;40.13;;;9.70;99.90;;;;;;4951184;29;20191;-89
2021/12/15 07:44:38;;;;;;;97.65;40.40;;;9.70;99.90;;;;;;4939606;29;20094;-90
2021/12/15 07:47:27;;;;;;;99.40;38.55;;;9.70;99.90;;;;;;4923969;29;20055;-89
2021/12/15 07:50:01;;;;;;;107.28;39.92;;;9.70;99.90;;;;;;4955302;29;20051;-89
2021/12/15 07:52:40;;;;;;;94.20;40.95;;;9.70;99.90;;;;;;4917458;29;20116;-89
2021/12/15 07:55:18;;;;;;;90.68;37.20;;;9.70;99.90;;;;;;4948978;29;20055;-89
2021/12/15 07:58:02;;;;;;;91.20;40.38;;;9.70;99.90;;;;;;4939416;29;20051;-89
2021/12/15 08:00:31;;;;;;;94.57;38.88;;;9.70;99.90;;;;;;4922391;29;20095;-89
2021/12/15 08:03:01;;;;;;;96.47;40.40;;;9.70;99.90;;;;;;4939303;29;20055;-89
2021/12/15 08:05:32;;;;;;;91.60;39.45;;;9.80;99.90;;;;;;4921025;29;20051;-89
2021/12/15 08:08:16;;;;;;;105.93;39.10;;;9.70;99.90;;;;;;4939207;29;20094;-89
2021/12/15 08:10:48;;;;;;;82.55;37.03;;;9.80;99.90;;;;;;4939113;29;20051;-89
2021/12/15 08:13:31;;;;;;;92.53;37.78;;;9.80;99.90;;;;;;4938629;29;20051;-89
2021/12/15 08:16:06;;;;;;;91.43;37.65;;;9.80;99.90;;;;;;4939107;29;20113;-93
2021/12/15 08:18:43;;;;;;;85.18;38.33;;;9.80;99.90;;;;;;4938708;29;20062;-89
2021/12/15 08:21:14;;;;;;;84.80;38.03;;;9.70;99.90;;;;;;4938642;29;20059;-89
2021/12/15 08:23:54;;;;;;;83.03;37.42;;;9.80;99.90;;;;;;4979772;28;20053;-89
2021/12/15 08:26:31;;;;;;;93.00;37.53;;;9.80;99.90;;;;;;5023079;28;20428;-89
2021/12/15 08:29:08;;;;;;;80.65;36.10;;;9.80;99.90;;;;;;4993840;28;20376;-89
2021/12/15 08:31:51;;;;;;;89.90;39.42;;;9.80;99.90;;;;;;4977054;28;20157;-89
2021/12/15 08:34:26;;;;;;;85.47;38.33;;;9.90;99.90;;;;;;4977225;28;20112;-91
2021/12/15 08:37:01;;;;;;;81.53;36.15;;;9.90;99.90;;;;;;4993425;28;20128;-89
2021/12/15 08:39:36;;;;;;;84.65;36.70;;;9.90;99.90;;;;;;4977109;28;20066;-89
2021/12/15 08:42:19;;;;;;;67.72;31.33;;;9.90;99.90;;;;;;4993468;28;20061;-89
2021/12/15 08:45:03;;;;;;;86.85;38.08;;;9.90;99.90;;;;;;4976599;28;20468;-89
2021/12/15 08:47:48;;;;;;;84.70;37.03;;;9.90;99.90;;;;;;4976815;28;20050;-89
2021/12/15 08:50:26;;;;;;;82.13;36.35;;;9.90;99.90;;;;;;4977106;28;20106;-89
2021/12/15 08:53:05;;;;;;;88.00;38.03;;;10.00;99.90;;;;;;4993463;28;20508;-89
2021/12/15 08:55:46;;;;;;;90.40;36.53;;;10.00;99.90;;;;;;4976853;28;20487;-89
2021/12/15 08:58:25;;;;;;;75.32;34.13;;;10.00;99.90;;;;;;4976793;28;20068;-89
2021/12/15 09:00:56;;;;;;;76.60;35.70;;;10.00;99.90;;;;;;4992541;28;20050;-89
2021/12/15 09:03:35;;;;;;;85.13;36.28;;;10.00;99.90;;;;;;4995904;28;20053;-90
2021/12/15 09:06:17;;;;;;;72.63;33.13;;;10.10;99.90;;;;;;4995894;28;20081;-90
2021/12/15 09:08:49;;;;;;;81.63;34.97;;;10.10;99.90;;;;;;4977039;28;20062;-89
2021/12/15 09:11:29;;;;;;;74.93;34.45;;;10.10;99.90;;;;;;4938269;29;20057;-89
2021/12/15 09:14:32;;;;;;;77.75;35.38;;;10.10;99.90;;;;;;4938205;29;20051;-89
2021/12/15 09:17:12;;;;;;;70.75;34.17;;;10.20;99.90;;;;;;4915354;29;20056;-89
2021/12/15 09:19:45;;;;;;;80.43;35.28;;;10.20;99.90;;;;;;4900065;29;20052;-89
2021/12/15 09:22:22;;;;;;;73.35;35.58;;;10.30;99.90;;;;;;4898995;29;20056;-89
2021/12/15 09:25:07;;;;;;;73.75;35.17;;;10.30;99.90;;;;;;4915716;29;20096;-89
2021/12/15 09:27:38;;;;;;;76.97;34.88;;;10.30;99.90;;;;;;4915542;29;20095;-89
2021/12/15 09:30:44;;;;;;;80.05;34.97;;;10.40;99.90;;;;;;4863456;29;20076;-89
2021/12/15 09:33:28;;;;;;;71.15;33.03;;;10.40;99.90;;;;;;4878079;29;20510;-89
2021/12/15 09:36:05;;;;;;;71.95;33.55;;;10.60;99.90;;;;;;4862192;29;20452;-90
2021/12/15 09:38:43;;;;;;;71.88;34.90;;;10.40;99.90;;;;;;4847505;29;20068;-90
2021/12/15 09:41:20;;;;;;;76.22;34.10;;;10.40;99.90;;;;;;4862490;29;20057;-89
2021/12/15 09:43:58;;;;;;;73.40;33.53;;;10.50;99.90;;;;;;4880964;29;20061;-90
2021/12/15 10:20:06;;;;;;;;;;;;;;;;;;;;;
2021/12/15 10:22:47;;;;;;;64.72;31.40;;;10.40;99.90;;;;;;4956007;28;20109;-90
2021/12/15 10:25:59;;;;;;;58.15;28.33;;;10.40;99.90;;;;;;4956272;28;20133;-90
2021/12/15 10:28:38;;;;;;;57.42;26.52;;;10.50;99.90;;;;;;4961147;28;20063;-90
2021/12/15 10:31:17;;;;;;;68.32;30.23;;;10.60;99.90;;;;;;4945820;28;20058;-91
2021/12/15 10:34:05;;;;;;;59.00;29.45;;;10.60;99.90;;;;;;4947504;28;20082;-90
2021/12/15 10:40:59;;;;;;;56.50;27.92;;;10.70;99.90;;;;;;4962647;28;20055;-89
2021/12/15 10:44:02;;;;;;;56.28;27.60;;;10.90;99.90;;;;;;4902380;29;20123;-89
2021/12/15 10:47:03;;;;;;;53.75;27.70;;;11.10;99.90;;;;;;4902179;29;20055;-90
2021/12/15 10:49:43;;;;;;;54.97;28.35;;;11.10;99.90;;;;;;4902555;29;20057;-89
2021/12/15 10:52:18;;;;;;;53.25;27.20;;;11.10;99.90;;;;;;4902141;29;20053;-89
2021/12/15 10:55:05;;;;;;;55.70;27.80;;;11.10;99.90;;;;;;4886311;29;20198;-90
2021/12/15 10:58:02;;;;;;;;;;;;;;;;;;;;;
2021/12/15 11:00:42;;;;;;;59.63;28.90;;;11.10;99.90;;;;;;4902516;29;20196;-90
2021/12/15 11:03:33;;;;;;;;;;;;;;;;;;;;;
2021/12/15 11:06:32;;;;;;;;;;;;;;;;;;;;;
2021/12/15 11:09:20;;;;;;;52.05;26.20;;;11.10;99.90;;;;;;4901568;29;20143;-90
2021/12/15 11:12:07;;;;;;;59.13;28.65;;;11.20;99.90;;;;;;4899504;29;20165;-90
2021/12/15 11:14:42;;;;;;;56.45;27.88;;;11.10;99.90;;;;;;4897577;29;20388;-89
2021/12/15 11:17:34;;;;;;;55.83;27.60;;;11.10;99.90;;;;;;4924785;29;20403;-90
2021/12/15 11:20:30;;;;;;;56.53;28.05;;;11.10;99.90;;;;;;4981553;28;20058;-90
2021/12/15 11:23:17;;;;;;;55.90;27.90;;;11.00;99.90;;;;;;4972232;28;20058;-89
2021/12/15 11:26:06;;;;;;;59.38;28.40;;;11.00;99.90;;;;;;4956097;28;20147;-89
2021/12/15 11:28:53;;;;;;;56.25;27.52;;;10.90;99.90;;;;;;4939866;29;20056;-90
2021/12/15 11:31:31;;;;;;;62.20;29.38;;;10.90;99.90;;;;;;4901840;29;20423;-90
2021/12/15 11:34:18;;;;;;;58.83;27.27;;;10.90;99.90;;;;;;4886411;29;20080;-91
2021/12/15 11:36:54;;;;;;;;;;;10.80;99.90;;;;;;4883733;29;20065;-90
2021/12/15 11:39:40;;;;;;;56.80;26.55;;;10.70;99.90;;;;;;4865122;29;20287;-90
2021/12/15 11:42:20;;;;;;;;;;;;;;;;;;;;;
2021/12/15 11:45:03;;;;;;;45.72;24.30;;;10.70;99.90;;;;;;4898612;29;20060;-90
2021/12/15 11:47:42;;;;;;;48.13;23.65;;;10.70;99.90;;;;;;4894655;29;20092;-90
2021/12/15 11:50:22;;;;;;;38.47;21.27;;;10.80;99.90;;;;;;4871812;29;20060;-91
2021/12/15 11:53:01;;;;;;;43.85;22.80;;;10.80;99.90;;;;;;4880595;29;20057;-90
2021/12/15 11:55:43;;;;;;;42.28;23.23;;;11.00;99.90;;;;;;4864549;29;20053;-90
2021/12/15 11:58:17;;;;;;;38.20;21.58;;;11.10;99.90;;;;;;4893525;29;20886;-91
2021/12/15 12:01:29;;;;;;;44.60;22.70;;;11.20;99.90;;;;;;4933503;29;20068;-93
2021/12/15 12:04:26;;;;;;;47.65;22.60;;;11.20;99.90;;;;;;4933315;29;20466;-90
2021/12/15 12:07:25;;;;;;;41.88;19.08;;;11.20;99.90;;;;;;4903765;29;20099;-90
2021/12/15 12:10:13;;;;;;;40.22;19.60;;;11.30;99.90;;;;;;4952642;28;20443;-90
2021/12/15 12:13:02;;;;;;;36.38;20.17;;;11.20;99.90;;;;;;4935261;29;20059;-90
2021/12/15 12:16:12;;;;;;;37.60;19.08;;;11.20;99.90;;;;;;4939867;28;20144;-91
2021/12/15 12:18:45;;;;;;;36.00;18.50;;;11.10;99.90;;;;;;4977800;28;20061;-90
2021/12/15 12:21:14;;;;;;;38.13;19.33;;;11.10;99.90;;;;;;4977726;28;20051;-91
2021/12/15 12:23:58;;;;;;;37.70;19.60;;;11.10;99.90;;;;;;5009387;28;20616;-89
2021/12/15 12:26:31;;;;;;;35.80;19.48;;;11.00;99.90;;;;;;5007662;28;20147;-89
2021/12/15 12:29:11;;;;;;;39.55;20.25;;;11.00;99.90;;;;;;4993706;28;20101;-90
2021/12/15 12:31:48;;;;;;;33.95;17.85;;;11.00;99.90;;;;;;4977078;28;20051;-89
2021/12/15 12:34:25;;;;;;;34.55;18.80;;;11.00;99.90;;;;;;4993622;28;20093;-90
2021/12/15 12:37:02;;;;;;;28.98;17.48;;;11.10;99.90;;;;;;4935946;29;20048;-90
2021/12/15 12:39:48;;;;;;;37.00;17.52;;;11.10;99.90;;;;;;4919749;29;20119;-90
2021/12/15 12:46:33;;;;;;;34.42;17.88;;;11.10;99.90;;;;;;4905971;29;20141;-90
2021/12/15 13:01:34;;;;;;;33.90;19.35;;;11.00;99.90;;;;;;4862560;29;20097;-91
2021/12/15 13:04:34;;;;;;;38.17;18.90;;;10.80;99.90;;;;;;4878952;29;20519;-90
2021/12/15 13:07:14;;;;;;;40.25;19.00;;;10.80;99.90;;;;;;4865522;29;20057;-90
2021/12/15 13:09:53;;;;;;;37.47;19.85;;;10.80;99.90;;;;;;4897311;29;20088;-90
2021/12/15 13:12:27;;;;;;;36.22;18.88;;;10.80;99.90;;;;;;4863072;29;20057;-90
2021/12/15 13:15:17;;;;;;;41.50;19.55;;;10.80;99.90;;;;;;4878567;29;20101;-90
2021/12/15 13:18:11;;;;;;;35.58;16.88;;;10.70;99.90;;;;;;4878825;29;20067;-89
2021/12/15 13:21:04;;;;;;;30.10;16.75;;;10.80;99.90;;;;;;4875551;29;20201;-90
2021/12/15 13:23:55;;;;;;;29.90;15.32;;;10.80;99.90;;;;;;4892640;29;20131;-90
2021/12/15 13:30:08;;;;;;;25.00;13.95;;;10.80;99.90;;;;;;4935108;29;20107;-91
2021/12/15 13:32:48;;;;;;;31.13;14.13;;;10.80;99.90;;;;;;4935059;29;20055;-92
2021/12/15 13:35:39;;;;;;;24.77;11.95;;;10.80;99.90;;;;;;4934746;29;20059;-90
2021/12/15 13:38:38;;;;;;;25.42;11.95;;;10.80;99.90;;;;;;4897266;29;20095;-90
2021/12/15 13:41:40;;;;;;;21.08;11.18;;;10.70;99.90;;;;;;4931433;28;20498;-90
2021/12/15 13:48:07;;;;;;;25.02;9.00;;;10.70;99.90;;;;;;4934813;29;20560;-90
2021/12/15 13:50:47;;;;;;;20.52;8.55;;;10.70;99.90;;;;;;4932679;29;20058;-91
2021/12/15 13:53:33;;;;;;;19.33;7.95;;;10.70;99.90;;;;;;4953936;29;20098;-90
2021/12/15 13:56:12;;;;;;;;;;;;;;;;;;;;;
2021/12/15 13:58:48;;;;;;;19.52;7.60;;;10.70;99.90;;;;;;4931758;29;20119;-92
2021/12/15 14:01:22;;;;;;;15.82;6.18;;;10.60;99.90;;;;;;4918578;29;20099;-90
2021/12/15 14:04:00;;;;;;;16.27;7.38;;;10.60;99.90;;;;;;4934601;29;20059;-91
2021/12/15 14:06:34;;;;;;;16.75;5.78;;;10.60;99.90;;;;;;4918694;29;20055;-91
2021/12/15 14:09:31;;;;;;;19.27;6.00;;;10.60;99.90;;;;;;4943273;29;20051;-90
2021/12/15 14:12:05;;;;;;;16.55;6.15;;;10.50;99.90;;;;;;4937435;29;20059;-90
2021/12/15 14:14:52;;;;;;;15.65;6.18;;;10.50;99.90;;;;;;4937865;29;20066;-90
2021/12/15 14:17:29;;;;;;;17.45;5.78;;;10.40;99.90;;;;;;4937266;29;20097;-91
2021/12/15 14:20:02;;;;;;;21.58;5.85;;;10.40;99.90;;;;;;4937559;29;20078;-91
2021/12/15 14:22:42;;;;;;;;;;;;;;;;;;;;;
2021/12/15 14:25:21;;;;;;;16.45;5.78;;;10.40;99.90;;;;;;4937066;29;20051;-90
2021/12/15 14:28:03;;;;;;;9.88;3.72;;;10.30;99.90;;;;;;4952976;28;20141;-90
2021/12/15 14:30:38;;;;;;;11.98;4.05;;;10.40;99.90;;;;;;4956592;28;20058;-90
2021/12/15 14:33:29;;;;;;;12.40;3.60;;;10.30;99.90;;;;;;4956660;28;20536;-91
2021/12/15 14:36:17;;;;;;;6.72;2.65;;;10.30;99.90;;;;;;4937852;29;20401;-91
2021/12/15 14:38:57;;;;;;;7.78;2.15;;;10.20;99.90;;;;;;4937700;29;20146;-91
2021/12/15 14:41:42;;;;;;;6.28;2.13;;;10.20;99.90;;;;;;4937157;29;20563;-90
2021/12/15 14:47:48;;;;;;;;;;;;;;;;;;;;;
2021/12/15 14:50:28;;;;;;;8.65;2.17;;;10.00;99.90;;;;;;4975865;28;20059;-90
2021/12/15 14:53:06;;;;;;;8.00;2.03;;;10.00;99.90;;;;;;4959879;28;20054;-91
2021/12/15 14:55:46;;;;;;;8.57;3.13;;;10.00;99.90;;;;;;4992139;28;20070;-91
2021/12/15 14:58:23;;;;;;;6.82;2.20;;;9.90;99.90;;;;;;4937380;29;20146;-90
2021/12/15 15:04:53;;;;;;;7.03;2.13;;;9.90;99.90;;;;;;4953331;29;20074;-91
2021/12/15 15:07:39;;;;;;;4.72;1.65;;;9.90;99.90;;;;;;4949973;28;20046;-91
2021/12/15 15:10:33;;;;;;;3.10;1.33;;;9.90;99.90;;;;;;4969346;28;20094;-89
2021/12/15 15:13:08;;;;;;;7.30;1.65;;;10.00;99.90;;;;;;4939122;28;20054;-90
2021/12/15 15:15:44;;;;;;;3.45;1.30;;;9.80;99.90;;;;;;4920685;29;20051;-90
2021/12/15 15:18:29;;;;;;;4.93;2.50;;;9.80;99.90;;;;;;4921152;29;20062;-90
2021/12/15 15:21:13;;;;;;;4.90;1.35;;;9.80;99.90;;;;;;4921530;29;20056;-91
2021/12/15 15:24:01;;;;;;;4.28;1.30;;;9.80;99.90;;;;;;4921291;29;20079;-90
2021/12/15 15:26:35;;;;;;;6.40;1.13;;;9.80;99.90;;;;;;4921318;29;20044;-90
2021/12/15 15:29:26;;;;;;;2.30;1.08;;;9.70;99.90;;;;;;4938910;28;20055;-90
2021/12/15 15:32:07;;;;;;;5.85;1.30;;;9.70;99.90;;;;;;4937982;29;20147;-90
2021/12/15 15:34:37;;;;;;;5.38;1.42;;;9.70;99.90;;;;;;4937155;29;20054;-90
2021/12/15 15:37:19;;;;;;;4.70;1.25;;;9.70;99.90;;;;;;4937461;29;20146;-91
2021/12/15 15:40:31;;;;;;;5.70;1.50;;;9.80;99.90;;;;;;4937212;29;20047;-91
2021/12/15 15:43:17;;;;;;;4.28;1.20;;;9.70;99.90;;;;;;4920813;29;20090;-90
2021/12/15 15:45:52;;;;;;;7.43;1.58;;;9.70;99.90;;;;;;4924447;28;20066;-91
2021/12/15 15:48:33;;;;;;;3.33;1.45;;;9.70;99.90;;;;;;4959321;28;20047;-90
2021/12/15 15:51:54;;;;;;;5.05;1.40;;;9.60;99.90;;;;;;4959088;28;20054;-90
2021/12/15 15:54:35;;;;;;;6.10;1.63;;;9.60;99.90;;;;;;4920907;29;20055;-90
2021/12/15 15:57:15;;;;;;;7.03;1.98;;;9.60;99.90;;;;;;4906295;29;20051;-90
2021/12/15 15:59:54;;;;;;;3.42;1.30;;;9.60;99.90;;;;;;4883592;29;20143;-90
2021/12/15 16:02:26;;;;;;;5.07;1.92;;;9.60;99.90;;;;;;4898549;29;20052;-93
2021/12/15 16:04:51;;;;;;;5.35;1.65;;;9.60;99.90;;;;;;4916968;29;20087;-91
2021/12/15 16:07:23;;;;;;;5.22;2.10;;;9.60;99.90;;;;;;4917774;29;20056;-91
2021/12/15 16:09:54;;;;;;;6.07;2.80;;;9.60;99.90;;;;;;4934321;29;20062;-91
2021/12/15 16:12:30;;;;;;;9.15;4.30;;;9.60;99.90;;;;;;4921733;29;20068;-91
2021/12/15 16:15:05;;;;;;;4.45;2.45;;;9.60;99.90;;;;;;4921110;29;20418;-91
2021/12/15 16:17:57;;;;;;;4.30;1.90;;;9.60;99.90;;;;;;4919653;29;20063;-91